Time;durP1;ratioP1;P1;durP2;ratioP2;P2;SDS_P1;SDS_P2;PMS_P1;PMS_P2;Temp;Humidity;BMP_temperature;BMP_pressure;BME280_temperature;BME280_humidity;BME280_pressure;Samples;Min_cycle;Max_cycle;Signal;HPM_P1;HPM_P2
2024/01/19 00:02:11;;;;;;;6.83;3.80;;;-1.50;99.90;;;;;;4937188;28;20223;-79
2024/01/19 00:04:39;;;;;;;8.33;3.67;;;-1.50;99.90;;;;;;4950951;28;20319;-79
2024/01/19 00:07:06;;;;;;;6.93;3.70;;;-1.40;99.90;;;;;;4966282;28;20575;-79
2024/01/19 00:09:33;;;;;;;6.33;4.37;;;-1.40;99.90;;;;;;4952387;28;20251;-79
2024/01/19 00:12:00;;;;;;;7.77;3.60;;;-1.40;99.90;;;;;;4949996;28;20650;-78
2024/01/19 00:14:28;;;;;;;6.83;3.27;;;-1.40;99.90;;;;;;4951457;28;20462;-78
2024/01/19 00:16:55;;;;;;;9.43;3.10;;;-1.30;99.90;;;;;;4969174;28;20501;-78
2024/01/19 00:19:21;;;;;;;6.90;3.70;;;-1.30;99.90;;;;;;4966996;28;20237;-78
2024/01/19 00:21:49;;;;;;;6.47;3.77;;;-1.30;99.90;;;;;;4954945;28;20227;-78
2024/01/19 00:24:16;;;;;;;6.83;3.40;;;-1.30;99.90;;;;;;4953559;28;20227;-78
2024/01/19 00:26:44;;;;;;;7.33;3.33;;;-1.30;99.90;;;;;;4948390;28;20886;-79
2024/01/19 00:29:11;;;;;;;6.17;3.20;;;-1.20;99.90;;;;;;4935055;28;20219;-78
2024/01/19 00:31:38;;;;;;;4.03;3.00;;;-1.20;99.90;;;;;;4967949;28;20227;-77
2024/01/19 00:34:05;;;;;;;9.17;3.13;;;-1.10;99.90;;;;;;4966396;28;20322;-77
2024/01/19 00:36:31;;;;;;;8.53;3.67;;;-1.10;99.90;;;;;;4950203;28;20314;-78
2024/01/19 00:39:00;;;;;;;12.77;3.30;;;-1.00;99.90;;;;;;4966912;28;20226;-78
2024/01/19 00:41:27;;;;;;;6.03;2.63;;;-0.90;99.90;;;;;;4948185;28;20528;-78
2024/01/19 00:43:54;;;;;;;4.37;2.80;;;-0.90;99.90;;;;;;4966161;28;20705;-78
2024/01/19 00:46:21;;;;;;;6.17;2.77;;;-0.90;99.90;;;;;;4966138;28;20246;-79
2024/01/19 00:48:47;;;;;;;3.77;2.40;;;-0.90;99.90;;;;;;4964488;28;20222;-78
2024/01/19 00:51:14;;;;;;;6.30;3.37;;;-0.80;99.90;;;;;;4965653;28;20223;-78
2024/01/19 00:53:41;;;;;;;6.57;2.90;;;-0.80;99.90;;;;;;4967582;28;20780;-78
2024/01/19 00:56:09;;;;;;;5.80;3.50;;;-0.80;99.90;;;;;;4948122;28;20230;-76
2024/01/19 00:58:37;;;;;;;5.77;3.30;;;-0.80;99.90;;;;;;4950236;28;20230;-77
2024/01/19 01:01:04;;;;;;;5.80;3.50;;;-0.80;99.90;;;;;;4949942;28;20226;-78
2024/01/19 01:03:31;;;;;;;4.77;3.47;;;-0.70;99.90;;;;;;4964579;28;20559;-78
2024/01/19 01:06:00;;;;;;;5.93;3.40;;;-0.80;99.90;;;;;;4965058;28;20274;-78
2024/01/19 01:08:28;;;;;;;4.97;3.20;;;-0.80;99.90;;;;;;4964527;28;20233;-78
2024/01/19 01:10:56;;;;;;;5.47;3.00;;;-0.80;99.90;;;;;;4966156;28;20234;-78
2024/01/19 01:13:25;;;;;;;5.07;2.80;;;-0.90;99.90;;;;;;4965620;28;20233;-77
2024/01/19 01:15:52;;;;;;;5.87;2.80;;;-0.90;99.90;;;;;;4966762;28;20228;-78
2024/01/19 01:18:20;;;;;;;4.10;2.63;;;-1.00;99.90;;;;;;4966111;28;20564;-78
2024/01/19 01:20:47;;;;;;;6.07;2.90;;;-1.00;99.90;;;;;;4964502;28;20309;-78
2024/01/19 01:23:14;;;;;;;5.67;2.63;;;-1.00;99.90;;;;;;4965373;28;20261;-78
2024/01/19 01:25:41;;;;;;;7.17;2.47;;;-1.00;99.90;;;;;;4966261;28;20324;-77
2024/01/19 01:28:08;;;;;;;5.97;2.40;;;-1.00;99.90;;;;;;4961849;28;20234;-78
2024/01/19 01:30:37;;;;;;;3.47;2.30;;;-1.00;99.90;;;;;;4966876;28;20589;-76
2024/01/19 01:33:04;;;;;;;6.57;2.20;;;-1.00;99.90;;;;;;4963929;28;20775;-78
2024/01/19 01:35:32;;;;;;;4.13;2.07;;;-1.00;99.90;;;;;;4964116;28;20253;-78
2024/01/19 01:37:59;;;;;;;4.20;2.00;;;-1.00;99.90;;;;;;4967495;28;20295;-78
2024/01/19 01:40:26;;;;;;;4.77;2.23;;;-0.90;99.90;;;;;;4967761;28;20290;-76
2024/01/19 01:42:57;;;;;;;8.87;2.70;;;-0.90;99.90;;;;;;4966627;28;20262;-79
2024/01/19 01:45:24;;;;;;;9.67;2.40;;;-0.90;99.90;;;;;;4963513;28;20623;-78
2024/01/19 01:47:53;;;;;;;12.10;2.60;;;-0.80;99.90;;;;;;4970039;28;20235;-77
2024/01/19 01:50:20;;;;;;;14.13;2.97;;;-0.80;99.90;;;;;;4985192;28;20233;-78
2024/01/19 01:52:47;;;;;;;27.73;4.00;;;-0.80;99.90;;;;;;4967041;28;20229;-77
2024/01/19 01:55:15;;;;;;;9.90;2.67;;;-0.80;99.90;;;;;;4968437;28;20766;-77
2024/01/19 01:57:44;;;;;;;56.67;4.77;;;-0.80;99.90;;;;;;4971381;28;20496;-76
2024/01/19 02:00:14;;;;;;;5.83;2.50;;;-0.80;99.90;;;;;;4970349;28;20339;-77
2024/01/19 02:02:41;;;;;;;5.87;2.80;;;-0.80;99.90;;;;;;4970935;28;20803;-78
2024/01/19 02:05:10;;;;;;;4.67;2.80;;;-0.90;99.90;;;;;;4969677;28;20290;-77
2024/01/19 02:07:37;;;;;;;6.50;3.00;;;-0.90;99.90;;;;;;4966487;28;20228;-77
2024/01/19 02:10:05;;;;;;;5.07;2.33;;;-1.00;99.90;;;;;;4968543;28;20219;-77
2024/01/19 02:12:32;;;;;;;4.87;2.70;;;-1.00;99.90;;;;;;4966556;28;20248;-76
2024/01/19 02:14:59;;;;;;;13.27;3.17;;;-1.10;99.90;;;;;;4965735;28;20711;-77
2024/01/19 02:17:26;;;;;;;6.70;2.47;;;-1.10;99.90;;;;;;4965051;28;20245;-77
2024/01/19 02:19:54;;;;;;;6.03;2.80;;;-1.20;99.90;;;;;;4967985;28;20329;-77
2024/01/19 02:22:22;;;;;;;6.87;3.00;;;-1.30;99.90;;;;;;4969322;28;20308;-78
2024/01/19 02:24:50;;;;;;;5.67;2.60;;;-1.30;99.90;;;;;;4966132;28;20219;-78
2024/01/19 02:27:18;;;;;;;6.50;2.43;;;-1.40;99.90;;;;;;4966003;28;20218;-76
2024/01/19 02:29:50;;;;;;;6.30;2.57;;;-1.40;99.90;;;;;;4966461;28;20321;-77
2024/01/19 02:32:16;;;;;;;4.77;2.40;;;-1.50;99.90;;;;;;4963563;28;20559;-77
2024/01/19 02:34:46;;;;;;;8.87;2.53;;;-1.50;99.90;;;;;;4964555;28;20223;-77
2024/01/19 02:37:13;;;;;;;3.80;2.07;;;-1.60;99.90;;;;;;4965272;28;20222;-77
2024/01/19 02:39:40;;;;;;;5.57;2.10;;;-1.60;99.90;;;;;;4966717;28;20231;-77
2024/01/19 02:42:08;;;;;;;28.07;3.67;;;-1.70;99.90;;;;;;4963915;28;20219;-77
2024/01/19 02:44:35;;;;;;;2.80;1.60;;;-1.70;99.90;;;;;;4965443;28;20453;-77
2024/01/19 02:47:02;;;;;;;6.23;1.80;;;-1.70;99.90;;;;;;4967673;28;20231;-77
2024/01/19 02:49:29;;;;;;;4.47;1.70;;;-1.80;99.90;;;;;;4968660;28;20230;-77
2024/01/19 02:51:56;;;;;;;2.30;1.57;;;-1.80;99.90;;;;;;4967603;28;20224;-76
2024/01/19 02:54:23;;;;;;;4.87;1.77;;;-1.80;99.90;;;;;;4963637;28;20628;-76
2024/01/19 02:56:50;;;;;;;6.60;1.73;;;-1.80;99.90;;;;;;4965200;28;20280;-77
2024/01/19 02:59:18;;;;;;;2.77;1.80;;;-1.80;99.90;;;;;;4965821;28;20241;-77
2024/01/19 03:01:45;;;;;;;5.33;1.83;;;-1.80;99.90;;;;;;4969886;28;20241;-77
2024/01/19 03:04:12;;;;;;;2.73;1.87;;;-1.70;99.90;;;;;;4964262;28;20606;-78
2024/01/19 03:06:38;;;;;;;5.87;1.87;;;-1.70;99.90;;;;;;4968958;28;20250;-78
2024/01/19 03:09:05;;;;;;;3.10;1.63;;;-1.70;99.90;;;;;;4966463;28;20305;-78
2024/01/19 03:11:32;;;;;;;5.13;1.60;;;-1.60;99.90;;;;;;4964328;28;20317;-78
2024/01/19 03:13:59;;;;;;;3.13;1.57;;;-1.60;99.90;;;;;;4966787;28;20610;-78
2024/01/19 03:16:27;;;;;;;5.60;1.70;;;-1.60;99.90;;;;;;4969805;28;21203;-77
2024/01/19 03:19:00;;;;;;;3.20;2.00;;;-1.50;99.90;;;;;;4966813;28;20288;-78
2024/01/19 03:21:27;;;;;;;3.53;1.50;;;-1.50;99.90;;;;;;4965999;28;20233;-78
2024/01/19 03:23:54;;;;;;;7.63;1.57;;;-1.50;99.90;;;;;;4971909;23;20368;-84
2024/01/19 03:26:21;;;;;;;7.73;1.70;;;-1.50;99.90;;;;;;4949277;28;20937;-85
2024/01/19 03:28:48;;;;;;;4.50;1.73;;;-1.30;99.90;;;;;;4943752;28;20736;-84
2024/01/19 03:31:15;;;;;;;5.17;1.70;;;-1.30;99.90;;;;;;4960077;28;20235;-84
2024/01/19 03:33:43;;;;;;;5.50;1.97;;;-1.30;99.90;;;;;;4950416;28;20231;-86
2024/01/19 03:36:10;;;;;;;4.43;1.90;;;-1.20;99.90;;;;;;4946925;28;20399;-85
2024/01/19 03:38:37;;;;;;;4.00;1.77;;;-1.20;99.90;;;;;;4946339;28;20290;-85
2024/01/19 03:41:04;;;;;;;9.90;1.73;;;-1.10;99.90;;;;;;4948697;28;20219;-84
2024/01/19 03:43:30;;;;;;;5.03;1.70;;;-1.00;99.90;;;;;;4944729;28;20248;-84
2024/01/19 03:45:57;;;;;;;4.33;1.60;;;-1.00;99.90;;;;;;4945410;28;20698;-85
2024/01/19 03:48:24;;;;;;;7.43;1.67;;;-1.00;99.90;;;;;;4940157;28;20238;-83
2024/01/19 03:50:52;;;;;;;5.37;1.60;;;-1.00;99.90;;;;;;4948779;28;20243;-84
2024/01/19 03:53:19;;;;;;;3.90;1.90;;;-1.00;99.90;;;;;;4944351;28;20881;-84
2024/01/19 03:55:46;;;;;;;6.83;2.13;;;-1.00;99.90;;;;;;4947240;28;20235;-83
2024/01/19 03:58:13;;;;;;;6.80;1.60;;;-1.00;99.90;;;;;;4941960;28;20268;-83
2024/01/19 04:00:40;;;;;;;5.97;1.90;;;-1.00;99.90;;;;;;4950401;28;20290;-83
2024/01/19 04:03:06;;;;;;;10.10;2.30;;;-1.00;99.90;;;;;;4948461;28;20245;-83
2024/01/19 04:05:33;;;;;;;4.53;1.50;;;-1.00;99.90;;;;;;4944556;28;20290;-83
2024/01/19 04:08:02;;;;;;;4.20;2.77;;;-1.00;99.90;;;;;;4940995;28;20294;-83
2024/01/19 04:10:29;;;;;;;3.97;1.70;;;-1.10;99.90;;;;;;4941459;28;20230;-84
2024/01/19 04:12:56;;;;;;;6.17;2.00;;;-1.10;99.90;;;;;;4944857;28;20227;-85
2024/01/19 04:15:23;;;;;;;3.47;1.43;;;-1.10;99.90;;;;;;4957767;28;20231;-83
2024/01/19 04:17:50;;;;;;;2.83;1.37;;;-1.10;99.90;;;;;;4956798;28;20235;-83
2024/01/19 04:20:16;;;;;;;2.97;1.30;;;-1.10;99.90;;;;;;4937511;28;20322;-84
2024/01/19 04:22:43;;;;;;;5.80;1.50;;;-1.10;99.90;;;;;;4950425;28;20319;-83
2024/01/19 04:25:11;;;;;;;3.77;1.40;;;-1.10;99.90;;;;;;4943524;28;20255;-83
2024/01/19 04:27:38;;;;;;;5.53;1.50;;;-1.00;99.90;;;;;;4943912;28;20252;-83
2024/01/19 04:30:05;;;;;;;3.43;1.40;;;-1.00;99.90;;;;;;4942982;28;20319;-83
2024/01/19 04:32:32;;;;;;;4.70;1.50;;;-0.90;99.90;;;;;;4940594;28;20234;-83
2024/01/19 04:34:59;;;;;;;5.70;2.10;;;-0.90;99.90;;;;;;4944976;28;20381;-83
2024/01/19 04:37:26;;;;;;;3.87;2.20;;;-0.80;99.90;;;;;;4950894;28;20765;-84
2024/01/19 04:39:52;;;;;;;5.70;2.20;;;-0.80;99.90;;;;;;4949864;28;20297;-83
2024/01/19 04:42:20;;;;;;;3.73;2.57;;;-0.70;99.90;;;;;;4950248;28;20772;-84
2024/01/19 04:44:47;;;;;;;7.93;3.43;;;-0.70;99.90;;;;;;4942641;28;20235;-84
2024/01/19 04:47:14;;;;;;;6.77;3.07;;;-0.70;99.90;;;;;;4938041;28;20232;-84
2024/01/19 04:49:41;;;;;;;7.77;3.37;;;-0.60;99.90;;;;;;4940719;28;20311;-86
2024/01/19 04:52:07;;;;;;;6.87;3.07;;;-0.60;99.90;;;;;;4951939;28;20248;-85
2024/01/19 04:54:34;;;;;;;5.50;2.93;;;-0.50;99.90;;;;;;4947187;28;20721;-83
2024/01/19 04:57:01;;;;;;;5.23;2.90;;;-0.50;99.90;;;;;;4942501;28;20316;-86
2024/01/19 04:59:31;;;;;;;7.07;2.87;;;-0.50;99.90;;;;;;4941046;28;20236;-84
2024/01/19 05:01:58;;;;;;;4.70;2.50;;;-0.50;99.90;;;;;;4942435;28;20586;-86
2024/01/19 05:04:25;;;;;;;4.17;2.30;;;-0.50;99.90;;;;;;4955309;28;20297;-86
2024/01/19 05:06:52;;;;;;;5.73;2.60;;;-0.50;99.90;;;;;;4940750;28;20917;-83
2024/01/19 05:09:19;;;;;;;6.03;2.00;;;-0.50;99.90;;;;;;4945568;28;20222;-86
2024/01/19 05:11:46;;;;;;;5.10;2.10;;;-0.50;99.90;;;;;;4957567;28;20238;-84
2024/01/19 05:14:14;;;;;;;6.87;2.00;;;-0.50;99.90;;;;;;4946348;28;20325;-84
2024/01/19 05:16:42;;;;;;;6.00;2.10;;;-0.50;99.90;;;;;;4943075;28;20227;-83
2024/01/19 05:19:09;;;;;;;9.97;1.60;;;-0.50;99.90;;;;;;4950837;28;20587;-84
2024/01/19 05:21:36;;;;;;;10.63;2.20;;;-0.50;99.90;;;;;;4945172;28;20237;-84
2024/01/19 05:24:04;;;;;;;25.73;3.27;;;-0.50;99.90;;;;;;4944962;28;20239;-81
2024/01/19 05:26:31;;;;;;;176.67;13.27;;;-0.50;99.90;;;;;;4948621;28;20224;-83
2024/01/19 05:28:58;;;;;;;41.93;3.97;;;-0.50;99.90;;;;;;4941991;28;20216;-83
2024/01/19 05:31:25;;;;;;;27.67;3.40;;;-0.50;99.90;;;;;;4956641;28;20239;-83
2024/01/19 05:33:54;;;;;;;34.53;3.23;;;-0.50;99.90;;;;;;4944534;28;20259;-83
2024/01/19 05:36:23;;;;;;;22.50;2.30;;;-0.50;99.90;;;;;;4960993;28;20226;-83
2024/01/19 05:38:50;;;;;;;16.13;2.20;;;-0.50;99.90;;;;;;4948653;28;20318;-83
2024/01/19 05:41:21;;;;;;;16.80;2.47;;;-0.50;99.90;;;;;;4963432;28;20287;-84
2024/01/19 05:43:48;;;;;;;6.40;1.53;;;-0.50;99.90;;;;;;4943399;28;20258;-84
2024/01/19 05:46:15;;;;;;;16.30;2.17;;;-0.40;99.90;;;;;;4946794;28;20895;-81
2024/01/19 05:48:42;;;;;;;9.70;1.80;;;-0.40;99.90;;;;;;4942809;28;22037;-83
2024/01/19 05:51:15;;;;;;;35.10;3.27;;;-0.50;99.90;;;;;;4939795;28;20296;-83
2024/01/19 05:53:42;;;;;;;8.80;1.43;;;-0.50;99.90;;;;;;4946332;28;20234;-83
2024/01/19 05:56:09;;;;;;;8.40;1.67;;;-0.50;99.90;;;;;;4947188;28;20233;-83
2024/01/19 05:58:36;;;;;;;10.10;1.80;;;-0.50;99.90;;;;;;4946980;28;20234;-83
2024/01/19 06:01:05;;;;;;;10.60;1.93;;;-0.50;99.90;;;;;;4944886;28;20220;-83
2024/01/19 06:03:33;;;;;;;8.67;1.83;;;-0.50;99.90;;;;;;4939674;28;20224;-82
2024/01/19 06:06:01;;;;;;;5.27;1.67;;;-0.60;99.90;;;;;;4946528;28;20226;-82
2024/01/19 06:08:30;;;;;;;4.87;1.77;;;-0.60;99.90;;;;;;4940665;28;20222;-82
2024/01/19 06:10:57;;;;;;;8.03;1.80;;;-0.60;99.90;;;;;;4940695;28;21075;-82
2024/01/19 06:13:25;;;;;;;9.20;1.67;;;-0.60;99.90;;;;;;4945235;28;20237;-83
2024/01/19 06:15:52;;;;;;;6.90;1.80;;;-0.60;99.90;;;;;;4950299;28;20293;-83
2024/01/19 06:18:19;;;;;;;31.93;3.40;;;-0.60;99.90;;;;;;4942087;28;20667;-83
2024/01/19 06:20:46;;;;;;;48.10;3.77;;;-0.50;99.90;;;;;;4939439;28;20234;-83
2024/01/19 06:23:14;;;;;;;3.97;1.50;;;-0.50;99.90;;;;;;4943244;28;20228;-84
2024/01/19 06:25:43;;;;;;;8.30;1.43;;;-0.50;99.90;;;;;;4956298;28;20227;-82
2024/01/19 06:28:10;;;;;;;3.23;1.57;;;-0.50;99.90;;;;;;4952832;28;20313;-83
2024/01/19 06:30:37;;;;;;;6.60;1.70;;;-0.50;99.90;;;;;;4939183;28;20231;-83
2024/01/19 06:33:06;;;;;;;4.80;1.20;;;-0.50;99.90;;;;;;4944786;28;20245;-83
2024/01/19 06:35:33;;;;;;;5.43;1.53;;;-0.50;99.90;;;;;;4949294;28;20223;-83
2024/01/19 06:38:00;;;;;;;4.70;1.40;;;-0.50;99.90;;;;;;4958051;28;20239;-83
2024/01/19 06:40:27;;;;;;;4.30;1.97;;;-0.50;99.90;;;;;;4949528;28;20296;-83
2024/01/19 06:42:56;;;;;;;9.67;1.47;;;-0.50;99.90;;;;;;4948699;28;20290;-82
2024/01/19 06:45:23;;;;;;;5.20;1.40;;;-0.40;99.90;;;;;;4946916;28;20770;-82
2024/01/19 06:47:50;;;;;;;5.50;1.20;;;-0.40;99.90;;;;;;4942762;28;20220;-82
2024/01/19 06:50:17;;;;;;;2.77;1.10;;;-0.40;99.90;;;;;;4956166;28;20227;-83
2024/01/19 06:52:44;;;;;;;4.93;1.27;;;-0.40;99.90;;;;;;4943896;28;20244;-83
2024/01/19 06:55:12;;;;;;;3.83;1.20;;;-0.30;99.90;;;;;;4943951;28;20284;-82
2024/01/19 06:57:39;;;;;;;3.70;1.27;;;-0.40;99.90;;;;;;4945491;28;20251;-82
2024/01/19 07:00:08;;;;;;;4.67;1.07;;;-0.40;99.90;;;;;;4942780;28;20231;-81
2024/01/19 07:02:35;;;;;;;3.87;1.10;;;-0.40;99.90;;;;;;4929738;28;20246;-82
2024/01/19 07:05:02;;;;;;;3.40;1.23;;;-0.40;99.90;;;;;;4943796;28;20227;-82
2024/01/19 07:07:29;;;;;;;3.50;1.30;;;-0.40;99.90;;;;;;4949143;28;20340;-82
2024/01/19 07:09:56;;;;;;;2.17;1.10;;;-0.50;99.90;;;;;;4945534;28;20699;-82
2024/01/19 07:12:22;;;;;;;5.43;1.20;;;-0.50;99.90;;;;;;4950931;28;20309;-83
2024/01/19 07:14:49;;;;;;;7.03;1.80;;;-0.50;99.90;;;;;;4945239;28;20938;-83
2024/01/19 07:17:17;;;;;;;4.40;1.20;;;-0.60;99.90;;;;;;4960765;28;20328;-83
2024/01/19 07:19:44;;;;;;;2.63;1.20;;;-0.60;99.90;;;;;;4939822;28;20242;-83
2024/01/19 07:22:11;;;;;;;3.30;1.40;;;-0.70;99.90;;;;;;4953635;28;20245;-82
2024/01/19 07:24:38;;;;;;;5.67;1.77;;;-0.70;99.90;;;;;;4949507;28;20255;-82
2024/01/19 07:27:05;;;;;;;3.93;1.40;;;-0.80;99.90;;;;;;4943908;28;20223;-82
2024/01/19 07:29:31;;;;;;;6.07;1.50;;;-0.80;99.90;;;;;;4946371;28;20643;-82
2024/01/19 07:31:58;;;;;;;3.27;1.50;;;-0.80;99.90;;;;;;4944998;28;20223;-85
2024/01/19 07:34:26;;;;;;;4.20;1.60;;;-0.90;99.90;;;;;;4950632;28;20680;-83
2024/01/19 07:36:53;;;;;;;5.23;1.77;;;-0.90;99.90;;;;;;4956665;28;20239;-83
2024/01/19 07:39:23;;;;;;;4.13;1.97;;;-0.90;99.90;;;;;;4949963;28;20262;-83
2024/01/19 07:41:50;;;;;;;6.03;1.50;;;-1.00;99.90;;;;;;4961434;28;20238;-83
2024/01/19 07:44:17;;;;;;;8.97;1.90;;;-1.00;99.90;;;;;;4941839;28;20230;-83
2024/01/19 07:46:44;;;;;;;3.67;1.70;;;-1.00;99.90;;;;;;4942559;28;20325;-83
2024/01/19 07:49:11;;;;;;;5.37;1.83;;;-1.00;99.90;;;;;;4957658;28;20222;-83
2024/01/19 07:51:39;;;;;;;7.13;1.93;;;-1.00;99.90;;;;;;4944964;28;20234;-83
2024/01/19 07:54:06;;;;;;;6.20;1.90;;;-1.00;99.90;;;;;;4942769;28;20724;-84
2024/01/19 07:56:33;;;;;;;6.53;1.87;;;-1.00;99.90;;;;;;4950553;28;20302;-82
2024/01/19 07:59:00;;;;;;;7.17;2.13;;;-1.00;99.90;;;;;;4943399;28;20224;-84
2024/01/19 08:01:26;;;;;;;6.67;2.23;;;-1.00;99.90;;;;;;4944246;28;20315;-82
2024/01/19 08:03:53;;;;;;;5.27;1.83;;;-1.00;99.90;;;;;;4941789;28;20264;-84
2024/01/19 08:06:20;;;;;;;5.57;1.80;;;-1.00;99.90;;;;;;4947112;28;20223;-82
2024/01/19 08:08:48;;;;;;;4.97;1.97;;;-1.00;99.90;;;;;;4949465;28;20333;-82
2024/01/19 08:11:14;;;;;;;5.47;2.23;;;-0.90;99.90;;;;;;4943037;28;20862;-82
2024/01/19 08:13:41;;;;;;;3.87;2.07;;;-0.90;99.90;;;;;;4938699;28;20317;-82
2024/01/19 08:16:08;;;;;;;5.77;1.90;;;-0.80;99.90;;;;;;4941350;28;20309;-83
2024/01/19 08:18:35;;;;;;;7.60;2.40;;;-0.70;99.90;;;;;;4948744;28;20231;-82
2024/01/19 08:21:02;;;;;;;5.73;2.20;;;-0.70;99.90;;;;;;4947894;28;20267;-82
2024/01/19 08:23:29;;;;;;;6.57;2.13;;;-0.60;99.90;;;;;;4943421;28;20236;-82
2024/01/19 08:25:57;;;;;;;3.57;1.90;;;-0.60;99.90;;;;;;4947206;28;20785;-82
2024/01/19 08:28:24;;;;;;;5.90;2.27;;;-0.50;99.90;;;;;;4943921;28;20386;-83
2024/01/19 08:30:51;;;;;;;6.23;2.00;;;-0.50;99.90;;;;;;4944836;28;20224;-82
2024/01/19 08:33:17;;;;;;;7.50;2.10;;;-0.40;99.90;;;;;;4943135;28;20753;-82
2024/01/19 08:35:44;;;;;;;7.13;2.57;;;-0.40;99.90;;;;;;4945126;28;20268;-83
2024/01/19 08:38:13;;;;;;;6.77;2.50;;;-0.30;99.90;;;;;;4940852;28;21014;-84
2024/01/19 08:40:40;;;;;;;6.23;2.40;;;-0.30;99.90;;;;;;4951157;28;20233;-84
2024/01/19 08:43:08;;;;;;;5.50;1.93;;;-0.30;99.90;;;;;;4943929;28;21077;-82
2024/01/19 08:45:35;;;;;;;5.13;2.17;;;-0.20;99.90;;;;;;4943715;28;20308;-83
2024/01/19 08:48:02;;;;;;;5.87;2.20;;;-0.20;99.90;;;;;;4941518;28;20298;-83
2024/01/19 08:50:29;;;;;;;6.40;1.80;;;-0.20;99.90;;;;;;4946676;28;20699;-82
2024/01/19 08:52:56;;;;;;;8.03;2.53;;;-0.10;99.90;;;;;;4944132;28;20663;-83
2024/01/19 08:55:23;;;;;;;7.00;2.00;;;-0.10;99.90;;;;;;4959287;28;20247;-82
2024/01/19 08:57:49;;;;;;;5.70;2.10;;;-0.10;99.90;;;;;;4947373;28;20318;-83
2024/01/19 09:00:18;;;;;;;5.13;1.87;;;-0.10;99.90;;;;;;4937406;28;20690;-83
2024/01/19 09:02:48;;;;;;;6.63;2.17;;;-0.10;99.90;;;;;;4950723;28;20230;-83
2024/01/19 09:05:14;;;;;;;4.83;1.50;;;-0.10;99.90;;;;;;4941562;28;20314;-82
2024/01/19 09:07:41;;;;;;;5.80;1.90;;;0.00;99.90;;;;;;4951287;28;20311;-83
2024/01/19 09:10:08;;;;;;;4.93;1.70;;;0.00;99.90;;;;;;4943564;28;20235;-83
2024/01/19 09:12:35;;;;;;;10.40;2.37;;;0.10;99.90;;;;;;4950311;28;20795;-82
2024/01/19 09:15:03;;;;;;;5.77;2.20;;;0.10;99.90;;;;;;4944375;28;20323;-82
2024/01/19 09:17:31;;;;;;;6.73;2.10;;;0.10;99.90;;;;;;4945898;28;20248;-82
2024/01/19 09:19:58;;;;;;;8.13;2.07;;;0.20;99.90;;;;;;4945544;28;20310;-83
2024/01/19 09:22:25;;;;;;;5.47;1.80;;;0.30;99.90;;;;;;4948182;28;20243;-82
2024/01/19 09:24:52;;;;;;;5.00;1.80;;;0.30;99.90;;;;;;4933414;28;20220;-82
2024/01/19 09:27:18;;;;;;;9.63;2.00;;;0.40;99.90;;;;;;4944316;28;20259;-82
2024/01/19 09:29:47;;;;;;;6.70;1.93;;;0.50;99.90;;;;;;4937656;28;20805;-83
2024/01/19 09:32:16;;;;;;;7.73;1.80;;;0.50;99.90;;;;;;4945771;28;20701;-82
2024/01/19 09:34:44;;;;;;;6.30;2.43;;;0.60;99.90;;;;;;4946269;28;20243;-83
2024/01/19 09:37:11;;;;;;;6.60;1.60;;;0.70;99.90;;;;;;4946945;28;20330;-83
2024/01/19 09:39:38;;;;;;;6.27;1.73;;;0.80;99.90;;;;;;4948836;28;20770;-84
2024/01/19 09:42:09;;;;;;;9.80;1.80;;;0.90;99.90;;;;;;4944014;28;20795;-83
2024/01/19 09:44:36;;;;;;;3.50;1.53;;;0.90;99.90;;;;;;4944067;28;20754;-83
2024/01/19 09:47:21;;;;;;;5.60;2.00;;;1.00;99.90;;;;;;4943708;28;20230;-84
2024/01/19 09:50:04;;;;;;;4.60;1.60;;;1.00;99.90;;;;;;4942425;28;20223;-84
2024/01/19 09:52:44;;;;;;;8.27;1.80;;;1.00;99.90;;;;;;4942482;28;20220;-84
2024/01/19 09:55:11;;;;;;;7.67;2.43;;;0.90;99.90;;;;;;4938486;28;20228;-84
2024/01/19 09:57:45;;;;;;;8.70;2.23;;;0.90;99.90;;;;;;4957877;28;20231;-83
2024/01/19 10:00:13;;;;;;;4.70;1.93;;;0.90;99.90;;;;;;4951433;28;20263;-84
2024/01/19 10:02:45;;;;;;;8.60;1.90;;;0.90;99.90;;;;;;4946737;28;20236;-83
2024/01/19 10:05:14;;;;;;;9.23;2.23;;;0.90;99.90;;;;;;4939101;28;20225;-84
2024/01/19 10:07:42;;;;;;;8.47;2.10;;;0.90;99.90;;;;;;4947934;28;20708;-84
2024/01/19 10:10:10;;;;;;;6.23;1.87;;;0.90;99.90;;;;;;4960791;28;20229;-85
2024/01/19 10:12:37;;;;;;;9.77;2.20;;;1.00;99.90;;;;;;4947685;28;20814;-85
2024/01/19 10:15:06;;;;;;;5.80;2.27;;;1.10;99.90;;;;;;4950322;28;20241;-84
2024/01/19 10:17:35;;;;;;;8.77;2.00;;;1.10;99.90;;;;;;4946950;28;20227;-84
2024/01/19 10:20:02;;;;;;;5.97;2.30;;;1.20;99.90;;;;;;4947412;28;20255;-84
2024/01/19 10:22:31;;;;;;;4.07;1.60;;;1.20;99.90;;;;;;4950479;28;20256;-83
2024/01/19 10:25:02;;;;;;;7.30;1.83;;;1.20;99.90;;;;;;4944328;28;20227;-84
2024/01/19 10:27:44;;;;;;;7.60;1.80;;;1.20;99.90;;;;;;4957334;28;20276;-84
2024/01/19 10:30:13;;;;;;;5.90;1.80;;;1.30;99.90;;;;;;4946833;28;20243;-83
2024/01/19 10:32:40;;;;;;;6.73;1.80;;;1.30;99.90;;;;;;4948157;28;20228;-84
2024/01/19 10:35:08;;;;;;;9.77;1.90;;;1.40;99.90;;;;;;4941323;28;20304;-84
2024/01/19 10:37:37;;;;;;;9.33;2.30;;;1.40;99.90;;;;;;4943606;28;20233;-84
2024/01/19 10:40:15;;;;;;;7.50;2.30;;;1.50;99.90;;;;;;4947002;28;20716;-84
2024/01/19 10:42:43;;;;;;;6.93;2.37;;;1.50;99.90;;;;;;4949528;28;20243;-84
2024/01/19 10:45:21;;;;;;;7.70;2.10;;;1.60;99.90;;;;;;4963141;28;20227;-84
2024/01/19 10:47:50;;;;;;;5.70;2.13;;;1.60;99.90;;;;;;4966276;28;20223;-84
2024/01/19 10:50:19;;;;;;;7.63;2.03;;;1.80;99.90;;;;;;4962399;28;20224;-83
2024/01/19 10:52:49;;;;;;;9.00;2.90;;;1.90;99.90;;;;;;4949048;28;20244;-84
2024/01/19 10:55:20;;;;;;;5.93;2.00;;;2.00;99.90;;;;;;4941446;28;20355;-83
2024/01/19 10:57:48;;;;;;;11.03;2.50;;;2.20;99.90;;;;;;4951190;28;20241;-84
2024/01/19 11:00:23;;;;;;;7.40;2.20;;;2.30;99.90;;;;;;4948294;28;20321;-84
2024/01/19 11:02:52;;;;;;;8.37;2.27;;;2.30;99.90;;;;;;4944523;28;20234;-84
2024/01/19 11:05:20;;;;;;;7.43;2.60;;;2.30;99.90;;;;;;4943861;28;20227;-83
2024/01/19 11:07:50;;;;;;;5.63;2.13;;;2.30;99.90;;;;;;4947681;28;20695;-84
2024/01/19 11:10:16;;;;;;;10.00;2.97;;;2.30;99.90;;;;;;4940501;28;20856;-83
2024/01/19 11:12:48;;;;;;;9.63;2.27;;;2.40;99.90;;;;;;4945133;28;20312;-84
2024/01/19 11:15:26;;;;;;;6.80;2.10;;;2.40;99.90;;;;;;4945760;28;20780;-83
2024/01/19 11:17:55;;;;;;;8.00;2.33;;;2.50;99.90;;;;;;4946562;28;20224;-85
2024/01/19 11:20:23;;;;;;;6.93;2.60;;;2.60;99.90;;;;;;4948809;28;20331;-83
2024/01/19 11:22:53;;;;;;;10.10;2.30;;;2.60;99.90;;;;;;4945393;28;20227;-83
2024/01/19 11:25:36;;;;;;;4.63;2.10;;;2.70;99.90;;;;;;4943258;28;20627;-83
2024/01/19 11:28:10;;;;;;;7.40;1.93;;;2.80;99.90;;;;;;4944932;28;20227;-83
2024/01/19 11:30:51;;;;;;;6.97;2.10;;;2.80;99.90;;;;;;4947704;28;20240;-83
2024/01/19 11:33:18;;;;;;;7.73;2.17;;;2.80;99.90;;;;;;4934400;28;20609;-83
2024/01/19 11:35:49;;;;;;;4.10;1.77;;;2.80;99.90;;;;;;4950971;28;20287;-84
2024/01/19 11:38:45;;;;;;;7.80;1.83;;;2.70;99.90;;;;;;4947438;28;20227;-83
2024/01/19 11:41:48;;;;;;;8.30;1.83;;;2.70;99.90;;;;;;4948368;28;20235;-84
2024/01/19 11:44:46;;;;;;;6.33;2.03;;;2.60;99.90;;;;;;4942457;28;20259;-84
2024/01/19 11:47:39;;;;;;;7.17;2.27;;;2.50;99.90;;;;;;4959635;28;20255;-84
2024/01/19 11:50:07;;;;;;;8.90;2.17;;;2.40;99.90;;;;;;4949330;28;20223;-84
2024/01/19 11:52:41;;;;;;;5.07;1.83;;;2.40;99.90;;;;;;4944941;28;20255;-83
2024/01/19 11:55:39;;;;;;;6.57;1.90;;;2.20;99.90;;;;;;4948866;28;20230;-85
2024/01/19 11:58:28;;;;;;;8.07;2.33;;;2.20;99.90;;;;;;4958167;28;20253;-84
2024/01/19 12:00:55;;;;;;;6.10;1.90;;;2.10;99.90;;;;;;4952724;28;20278;-84
2024/01/19 12:03:22;;;;;;;6.97;1.70;;;2.00;99.90;;;;;;4952501;28;20244;-84
2024/01/19 12:05:50;;;;;;;5.63;2.03;;;1.90;99.90;;;;;;4953490;28;20223;-84
2024/01/19 12:08:17;;;;;;;5.67;1.90;;;1.90;99.90;;;;;;4952932;28;20657;-84
2024/01/19 12:10:45;;;;;;;6.53;1.80;;;1.80;99.90;;;;;;4950046;28;21077;-84
2024/01/19 12:13:13;;;;;;;3.77;1.77;;;1.70;99.90;;;;;;4944790;28;20229;-85
2024/01/19 12:15:40;;;;;;;5.03;1.87;;;1.70;99.90;;;;;;4950245;28;20374;-85
2024/01/19 12:18:07;;;;;;;3.83;1.53;;;1.60;99.90;;;;;;4944483;28;20231;-83
2024/01/19 12:20:33;;;;;;;6.60;2.10;;;1.50;99.90;;;;;;4958678;28;20251;-83
2024/01/19 12:23:01;;;;;;;6.33;1.70;;;1.40;99.90;;;;;;4943615;28;20294;-84
2024/01/19 12:25:28;;;;;;;5.43;1.87;;;1.40;99.90;;;;;;4944040;28;20252;-84
2024/01/19 12:28:05;;;;;;;10.23;2.30;;;1.30;99.90;;;;;;4947271;28;20223;-84
2024/01/19 12:30:33;;;;;;;6.97;1.60;;;1.30;99.90;;;;;;4957806;28;20282;-84
2024/01/19 12:33:13;;;;;;;7.30;2.00;;;1.30;99.90;;;;;;4944368;28;20312;-84
2024/01/19 12:35:40;;;;;;;5.50;1.60;;;1.30;99.90;;;;;;4950101;28;20219;-85
2024/01/19 12:38:07;;;;;;;5.47;1.40;;;1.30;99.90;;;;;;4941294;28;20232;-86
2024/01/19 12:40:35;;;;;;;6.80;1.97;;;1.30;99.90;;;;;;4941176;28;20254;-85
2024/01/19 12:43:04;;;;;;;6.83;1.97;;;1.30;99.90;;;;;;4944597;28;20255;-85
2024/01/19 12:45:31;;;;;;;5.43;1.63;;;1.30;99.90;;;;;;4942983;28;20230;-85
2024/01/19 12:47:59;;;;;;;5.13;2.03;;;1.40;99.90;;;;;;4945987;28;20310;-86
2024/01/19 12:50:26;;;;;;;6.03;1.90;;;1.40;99.90;;;;;;4941790;28;20229;-85
2024/01/19 12:52:53;;;;;;;2.47;1.40;;;1.50;99.90;;;;;;4944169;28;20250;-86
2024/01/19 12:55:26;;;;;;;6.63;1.80;;;1.60;99.90;;;;;;4945551;28;20242;-86